createdAt,value
2018-03-29T00:00:52.174Z,94.58
2018-03-29T00:03:18.129Z,94.50
2018-03-29T00:05:44.074Z,94.52
2018-03-29T00:08:10.030Z,94.69
2018-03-29T00:10:35.981Z,94.65
2018-03-29T00:13:01.941Z,94.64
2018-03-29T00:15:27.898Z,94.82
2018-03-29T00:17:53.843Z,94.87
2018-03-29T00:20:34.758Z,94.96
2018-03-29T00:23:00.717Z,95.07
2018-03-29T00:25:26.665Z,95.07
2018-03-29T00:27:52.625Z,95.08
2018-03-29T00:30:18.593Z,95.15
2018-03-29T00:32:44.548Z,95.16
2018-03-29T00:35:10.492Z,95.17
2018-03-29T00:37:36.438Z,95.26
2018-03-29T00:40:02.409Z,95.30
2018-03-29T00:42:28.353Z,95.30
2018-03-29T00:44:54.330Z,95.30
2018-03-29T00:47:20.295Z,95.31
2018-03-29T00:49:46.269Z,95.35
2018-03-29T00:52:12.250Z,95.39
2018-03-29T00:54:38.243Z,95.36
2018-03-29T00:57:04.220Z,95.40
2018-03-29T00:59:30.217Z,95.35
2018-03-29T01:01:56.190Z,95.35
2018-03-29T01:04:22.142Z,95.35
2018-03-29T01:06:48.114Z,95.33
2018-03-29T01:09:14.082Z,95.41
2018-03-29T01:11:40.053Z,95.54
2018-03-29T01:14:06.032Z,95.69
2018-03-29T01:16:32.010Z,95.59
2018-03-29T01:18:57.982Z,95.69
2018-03-29T01:21:23.978Z,95.66
2018-03-29T01:23:49.924Z,95.62
2018-03-29T01:26:15.909Z,95.60
2018-03-29T01:28:41.859Z,95.50
2018-03-29T01:31:07.810Z,95.43
2018-03-29T01:33:33.760Z,95.50
2018-03-29T01:35:59.697Z,95.52
2018-03-29T01:38:25.662Z,95.46
2018-03-29T01:40:51.628Z,95.42
2018-03-29T01:43:17.610Z,95.50
2018-03-29T01:45:43.600Z,95.58
2018-03-29T01:48:09.563Z,95.65
2018-03-29T01:50:35.530Z,95.61
2018-03-29T01:53:01.493Z,95.70
2018-03-29T01:55:27.449Z,95.76
2018-03-29T01:57:53.441Z,95.73
2018-03-29T02:00:19.410Z,95.79
2018-03-29T02:02:45.389Z,95.82
2018-03-29T02:05:11.357Z,95.83
2018-03-29T02:07:37.309Z,95.80
2018-03-29T02:10:03.269Z,95.72
2018-03-29T02:12:29.225Z,95.67
2018-03-29T02:14:55.167Z,95.77
2018-03-29T02:17:21.115Z,95.78
2018-03-29T02:19:47.075Z,95.69
2018-03-29T02:22:13.041Z,95.68
2018-03-29T02:24:38.992Z,95.67
2018-03-29T02:27:04.989Z,95.78
2018-03-29T02:29:30.925Z,95.87
2018-03-29T02:31:56.900Z,95.75
2018-03-29T02:34:22.846Z,95.91
2018-03-29T02:36:48.795Z,95.93
2018-03-29T02:39:14.749Z,95.93
2018-03-29T02:41:40.703Z,95.95
2018-03-29T02:44:06.660Z,96.04
2018-03-29T02:46:32.634Z,95.93
2018-03-29T02:48:58.586Z,95.76
2018-03-29T02:51:24.548Z,95.90
2018-03-29T02:53:50.518Z,96.02
2018-03-29T02:56:16.525Z,95.96
2018-03-29T02:58:42.465Z,95.95
2018-03-29T03:01:08.421Z,95.93
2018-03-29T03:03:34.376Z,95.94
2018-03-29T03:06:00.333Z,96.17
2018-03-29T03:08:26.285Z,96.24
2018-03-29T03:10:52.406Z,96.15
2018-03-29T03:13:18.353Z,96.04
2018-03-29T03:15:44.319Z,96.28
2018-03-29T03:18:10.293Z,96.11
2018-03-29T03:20:36.259Z,96.01
2018-03-29T03:23:02.233Z,95.94
2018-03-29T03:25:43.194Z,96.18
2018-03-29T03:28:09.134Z,96.07
2018-03-29T03:30:35.102Z,96.06
2018-03-29T03:33:01.061Z,95.78
2018-03-29T03:35:27.001Z,95.67
2018-03-29T03:37:52.961Z,95.67
2018-03-29T03:40:18.911Z,95.47
2018-03-29T03:42:44.881Z,95.48
2018-03-29T03:45:10.847Z,95.42
2018-03-29T03:47:36.796Z,95.00
2018-03-29T03:50:02.780Z,94.50
2018-03-29T03:52:28.750Z,94.18
2018-03-29T03:54:54.725Z,93.90
2018-03-29T03:57:20.698Z,93.61
2018-03-29T03:59:46.677Z,93.16
2018-03-29T04:02:12.647Z,92.06
2018-03-29T04:04:38.611Z,91.75
2018-03-29T04:07:04.558Z,91.19
2018-03-29T04:09:30.500Z,90.25
2018-03-29T04:11:56.466Z,90.17
2018-03-29T04:14:22.420Z,90.29
2018-03-29T04:16:48.369Z,90.14
2018-03-29T04:19:14.338Z,89.90
2018-03-29T04:21:40.314Z,88.99
2018-03-29T04:24:06.295Z,88.79
2018-03-29T04:26:32.249Z,88.84
2018-03-29T04:28:58.197Z,88.86
2018-03-29T04:31:24.196Z,88.82
2018-03-29T04:33:50.166Z,88.88
2018-03-29T04:36:16.138Z,89.10
2018-03-29T04:38:42.108Z,88.95
2018-03-29T04:41:08.084Z,89.31
2018-03-29T04:43:34.029Z,89.33
2018-03-29T04:46:00.007Z,89.44
2018-03-29T04:48:25.955Z,89.48
2018-03-29T04:50:51.896Z,89.16
2018-03-29T04:53:17.874Z,89.21
2018-03-29T04:55:43.837Z,88.76
2018-03-29T04:58:09.788Z,88.27
2018-03-29T05:00:35.745Z,88.14
2018-03-29T05:03:01.744Z,87.52
2018-03-29T05:05:27.702Z,87.42
2018-03-29T05:07:53.653Z,87.44
2018-03-29T05:10:19.626Z,87.54
2018-03-29T05:12:45.588Z,87.32
2018-03-29T05:15:11.546Z,87.12
2018-03-29T05:17:37.520Z,87.14
2018-03-29T05:20:03.481Z,87.64
2018-03-29T05:22:29.459Z,86.57
2018-03-29T05:24:55.404Z,86.18
2018-03-29T05:27:25.204Z,86.07
2018-03-29T05:29:51.174Z,85.17
2018-03-29T05:32:17.163Z,85.02
2018-03-29T05:34:43.120Z,84.98
2018-03-29T05:37:09.065Z,85.24
2018-03-29T05:39:35.036Z,84.76
2018-03-29T05:42:01.030Z,84.82
2018-03-29T05:44:26.998Z,84.16
2018-03-29T05:46:52.992Z,83.81
2018-03-29T05:49:18.930Z,84.06
2018-03-29T05:51:44.889Z,84.33
2018-03-29T05:54:10.839Z,83.91
2018-03-29T05:56:36.794Z,84.55
2018-03-29T05:59:02.754Z,85.16
2018-03-29T06:01:28.718Z,85.13
2018-03-29T06:03:54.685Z,85.11
2018-03-29T06:06:20.652Z,85.40
2018-03-29T06:08:46.644Z,84.82
2018-03-29T06:11:12.630Z,84.84
2018-03-29T06:13:39.657Z,85.13
2018-03-29T06:16:05.637Z,85.08
2018-03-29T06:18:31.609Z,84.51
2018-03-29T06:20:57.584Z,84.38
2018-03-29T06:23:23.647Z,84.14
2018-03-29T06:25:49.590Z,84.31
2018-03-29T06:28:15.541Z,83.75
2018-03-29T06:30:41.494Z,84.23
2018-03-29T06:33:07.437Z,84.22
2018-03-29T06:35:33.454Z,83.44
2018-03-29T06:37:59.425Z,83.63
2018-03-29T06:40:25.393Z,83.45
2018-03-29T06:42:51.353Z,83.43
2018-03-29T06:45:17.316Z,83.47
2018-03-29T06:47:43.265Z,83.66
2018-03-29T06:50:09.230Z,83.20
2018-03-29T06:52:35.178Z,82.99
2018-03-29T06:55:01.141Z,82.74
2018-03-29T06:57:27.093Z,82.91
2018-03-29T06:59:53.057Z,82.88
2018-03-29T07:02:19.057Z,82.59
2018-03-29T07:04:45.034Z,82.51
2018-03-29T07:07:10.998Z,82.31
2018-03-29T07:09:36.970Z,81.85
2018-03-29T07:12:02.958Z,81.54
2018-03-29T07:14:28.926Z,81.96
2018-03-29T07:16:54.930Z,82.07
2018-03-29T07:19:20.898Z,81.08
2018-03-29T07:21:46.847Z,81.72
2018-03-29T07:24:12.814Z,80.35
2018-03-29T07:26:38.769Z,80.31
2018-03-29T07:29:04.753Z,80.24
2018-03-29T07:31:30.737Z,79.72
2018-03-29T07:33:56.695Z,80.18
2018-03-29T07:36:22.744Z,79.65
2018-03-29T07:38:48.705Z,79.38
2018-03-29T07:41:14.667Z,79.75
2018-03-29T07:43:40.624Z,79.28
2018-03-29T07:46:06.613Z,79.08
2018-03-29T07:48:47.538Z,78.88
2018-03-29T07:51:13.505Z,78.30
2018-03-29T07:53:39.531Z,78.47
2018-03-29T07:56:05.535Z,78.27
2018-03-29T07:58:31.481Z,78.29
2018-03-29T08:00:57.461Z,78.26
2018-03-29T08:03:23.423Z,78.14
2018-03-29T08:05:49.385Z,78.19
2018-03-29T08:08:15.378Z,76.95
2018-03-29T08:10:41.385Z,77.67
2018-03-29T08:13:07.345Z,77.70
2018-03-29T08:15:33.298Z,77.03
2018-03-29T08:17:59.256Z,77.36
2018-03-29T08:20:25.344Z,77.39
2018-03-29T08:22:51.313Z,77.40
2018-03-29T08:25:17.266Z,77.26
2018-03-29T08:27:43.239Z,76.65
2018-03-29T08:30:09.204Z,77.01
2018-03-29T08:32:35.175Z,77.14
2018-03-29T08:35:01.127Z,77.10
2018-03-29T08:37:27.101Z,76.41
2018-03-29T08:39:53.061Z,75.94
2018-03-29T08:42:19.019Z,76.24
2018-03-29T08:44:45.000Z,76.06
2018-03-29T08:47:10.949Z,75.95
2018-03-29T08:49:36.897Z,75.55
2018-03-29T08:52:02.868Z,76.06
2018-03-29T08:54:28.833Z,76.77
2018-03-29T08:56:54.827Z,77.85
2018-03-29T08:59:20.784Z,78.51
2018-03-29T09:01:46.757Z,78.57
2018-03-29T09:04:12.786Z,79.53
2018-03-29T09:06:38.749Z,77.80
2018-03-29T09:09:04.726Z,78.51
2018-03-29T09:11:30.673Z,76.10
2018-03-29T09:13:56.616Z,75.33
2018-03-29T09:16:22.573Z,74.15
2018-03-29T09:18:48.530Z,74.17
2018-03-29T09:21:14.512Z,74.27
2018-03-29T09:23:40.473Z,74.04
2018-03-29T09:26:06.433Z,75.90
2018-03-29T09:28:32.417Z,76.68
2018-03-29T09:30:58.413Z,78.22
2018-03-29T09:33:24.373Z,79.12
2018-03-29T09:35:50.352Z,79.87
2018-03-29T09:38:16.311Z,80.27
2018-03-29T09:40:42.270Z,79.63
2018-03-29T09:43:08.248Z,78.94
2018-03-29T09:45:34.233Z,77.26
2018-03-29T09:48:00.205Z,77.43
2018-03-29T09:50:26.179Z,75.06
2018-03-29T09:52:52.144Z,71.60
2018-03-29T09:55:18.104Z,71.88
2018-03-29T09:57:44.106Z,67.27
2018-03-29T10:00:10.079Z,62.26
2018-03-29T10:02:37.084Z,62.36
2018-03-29T10:05:03.089Z,57.20
2018-03-29T10:07:33.930Z,56.31
2018-03-29T10:09:59.900Z,56.40
2018-03-29T10:12:25.864Z,56.83
2018-03-29T10:14:51.846Z,62.39
2018-03-29T10:17:17.905Z,62.24
2018-03-29T10:19:43.877Z,63.12
2018-03-29T10:22:09.898Z,63.62
2018-03-29T10:24:36.206Z,62.79
2018-03-29T10:27:02.185Z,65.38
2018-03-29T10:29:28.146Z,63.91
2018-03-29T10:31:54.134Z,64.18
2018-03-29T10:34:20.097Z,63.70
2018-03-29T10:36:46.067Z,64.33
2018-03-29T10:39:12.033Z,64.69
2018-03-29T10:41:37.981Z,64.17
2018-03-29T10:44:03.971Z,63.73
2018-03-29T10:49:26.117Z,62.60
2018-03-29T10:51:53.646Z,61.68
2018-03-29T10:54:21.238Z,62.82
2018-03-29T10:56:48.754Z,62.79
2018-03-29T10:59:16.274Z,63.75
2018-03-29T11:01:43.919Z,63.14
2018-03-29T11:04:11.505Z,62.46
2018-03-29T11:06:39.038Z,63.70
2018-03-29T11:09:06.593Z,63.93
2018-03-29T11:11:34.114Z,63.43
2018-03-29T11:14:01.634Z,64.13
2018-03-29T11:16:29.516Z,63.99
2018-03-29T11:18:57.048Z,64.03
2018-03-29T11:21:24.610Z,63.14
2018-03-29T11:23:52.121Z,64.34
2018-03-29T11:26:19.640Z,63.62
2018-03-29T11:28:47.282Z,64.89
2018-03-29T11:31:14.797Z,64.74
2018-03-29T11:33:42.345Z,63.27
2018-03-29T11:36:09.899Z,63.36
2018-03-29T11:38:37.433Z,63.40
2018-03-29T11:41:04.953Z,62.85
2018-03-29T11:43:32.472Z,62.21
2018-03-29T11:45:59.998Z,62.46
2018-03-29T11:48:27.521Z,61.95
2018-03-29T11:50:55.034Z,62.37
2018-03-29T11:53:22.555Z,62.20
2018-03-29T11:55:50.239Z,62.84
2018-03-29T11:58:17.815Z,61.86
2018-03-29T12:00:45.384Z,63.30
2018-03-29T12:03:12.922Z,63.01
2018-03-29T12:05:40.441Z,63.55
2018-03-29T12:08:08.050Z,64.01
2018-03-29T12:10:35.576Z,63.68
2018-03-29T12:13:03.111Z,62.55
2018-03-29T12:15:30.641Z,63.63
2018-03-29T12:17:58.221Z,61.86
2018-03-29T12:20:25.748Z,62.31
2018-03-29T12:22:53.270Z,62.53
2018-03-29T12:25:20.990Z,62.16
2018-03-29T12:27:48.553Z,61.69
2018-03-29T12:30:16.086Z,61.63
2018-03-29T12:32:43.762Z,61.78
2018-03-29T12:35:11.322Z,61.00
2018-03-29T12:37:38.825Z,61.31
2018-03-29T12:40:06.422Z,61.27
2018-03-29T12:42:33.983Z,61.62
2018-03-29T12:45:01.520Z,61.41
2018-03-29T12:47:29.070Z,62.03
2018-03-29T12:49:56.680Z,61.33
2018-03-29T12:52:24.308Z,60.15
2018-03-29T12:55:03.558Z,60.46
2018-03-29T12:57:43.110Z,60.74
2018-03-29T13:00:10.664Z,60.39
2018-03-29T13:02:38.216Z,60.27
2018-03-29T13:05:05.852Z,59.78
2018-03-29T13:07:33.416Z,60.11
2018-03-29T13:10:00.986Z,60.33
2018-03-29T13:12:28.513Z,60.39
2018-03-29T13:14:56.025Z,60.53
2018-03-29T13:17:23.546Z,60.51
2018-03-29T13:19:51.139Z,60.79
2018-03-29T13:22:18.672Z,61.21
2018-03-29T13:24:46.228Z,62.00
2018-03-29T13:27:13.822Z,61.32
2018-03-29T13:29:41.383Z,61.73
2018-03-29T13:32:08.914Z,61.99
2018-03-29T13:34:36.454Z,61.93
2018-03-29T13:37:04.241Z,61.28
2018-03-29T13:39:31.826Z,60.90
2018-03-29T13:41:59.396Z,61.43
2018-03-29T13:44:26.974Z,61.40
2018-03-29T13:46:54.508Z,59.72
2018-03-29T13:49:22.033Z,60.23
2018-03-29T13:51:49.562Z,59.69
2018-03-29T13:54:17.177Z,59.34
2018-03-29T13:56:44.690Z,59.92
2018-03-29T13:59:12.238Z,59.34
2018-03-29T14:01:39.932Z,58.99
2018-03-29T14:04:07.629Z,60.46
2018-03-29T14:06:35.162Z,60.73
2018-03-29T14:09:02.685Z,61.22
2018-03-29T14:11:30.207Z,60.36
2018-03-29T14:13:57.760Z,61.04
2018-03-29T14:16:25.292Z,61.89
2018-03-29T14:18:52.810Z,62.04
2018-03-29T14:21:20.394Z,61.69
2018-03-29T14:23:48.073Z,61.29
2018-03-29T14:26:15.653Z,62.08
2018-03-29T14:28:43.208Z,60.79
2018-03-29T14:31:10.724Z,60.77
2018-03-29T14:33:38.349Z,60.81
2018-03-29T14:36:05.874Z,60.49
2018-03-29T14:38:33.468Z,60.51
2018-03-29T14:41:01.049Z,59.83
2018-03-29T14:43:28.777Z,59.60
2018-03-29T14:45:56.456Z,59.94
2018-03-29T14:48:24.023Z,59.42
2018-03-29T14:50:51.558Z,59.33
2018-03-29T14:53:19.081Z,59.64
2018-03-29T14:55:46.730Z,60.25
2018-03-29T14:58:14.239Z,59.74
2018-03-29T15:00:41.810Z,59.60
2018-03-29T15:03:09.375Z,59.59
2018-03-29T15:05:37.038Z,59.88
2018-03-29T15:08:04.604Z,60.33
2018-03-29T15:10:32.142Z,60.31
2018-03-29T15:12:59.653Z,60.50
2018-03-29T15:15:27.173Z,60.65
2018-03-29T15:17:54.723Z,60.73
2018-03-29T15:20:22.277Z,60.16
2018-03-29T15:22:49.922Z,60.72
2018-03-29T15:25:17.893Z,60.72
2018-03-29T15:27:45.470Z,60.98
2018-03-29T15:30:13.020Z,61.49
2018-03-29T15:32:40.540Z,61.39
2018-03-29T15:35:08.061Z,61.33
2018-03-29T15:37:35.624Z,61.24
2018-03-29T15:40:03.149Z,61.44
2018-03-29T15:42:30.669Z,61.48
2018-03-29T15:44:58.261Z,61.07
2018-03-29T15:47:25.866Z,61.49
2018-03-29T15:49:53.410Z,61.31
2018-03-29T15:52:21.089Z,61.09
2018-03-29T15:54:48.613Z,61.60
2018-03-29T15:57:16.180Z,62.00
2018-03-29T15:59:43.696Z,61.76
2018-03-29T16:02:11.210Z,62.01
2018-03-29T16:04:38.741Z,62.03
2018-03-29T16:07:06.356Z,61.70
2018-03-29T16:09:34.054Z,61.83
2018-03-29T16:12:01.622Z,61.96
2018-03-29T16:14:29.156Z,61.88
2018-03-29T16:16:56.687Z,62.01
2018-03-29T16:19:24.233Z,61.76
2018-03-29T16:21:51.766Z,62.03
2018-03-29T16:24:19.289Z,61.65
2018-03-29T16:26:46.927Z,61.54
2018-03-29T16:29:14.441Z,61.47
2018-03-29T16:31:41.970Z,61.98
2018-03-29T16:34:09.489Z,62.23
2018-03-29T16:36:37.022Z,61.70
2018-03-29T16:39:04.549Z,61.51
2018-03-29T16:41:32.185Z,61.75
2018-03-29T16:43:59.745Z,61.11
2018-03-29T16:46:27.269Z,62.14
2018-03-29T16:48:54.799Z,62.29
2018-03-29T16:51:22.326Z,62.15
2018-03-29T16:53:49.881Z,61.77
2018-03-29T16:56:17.413Z,62.43
2018-03-29T16:58:44.998Z,63.19
2018-03-29T17:01:12.521Z,62.27
2018-03-29T17:03:40.055Z,64.19
2018-03-29T17:06:07.691Z,63.94
2018-03-29T17:08:35.250Z,63.05
2018-03-29T17:11:02.777Z,63.23
2018-03-29T17:13:30.369Z,63.47
2018-03-29T17:15:57.893Z,64.43
2018-03-29T17:18:25.421Z,64.48
2018-03-29T17:20:53.046Z,64.23
2018-03-29T17:23:20.605Z,64.53
2018-03-29T17:25:48.129Z,64.38
2018-03-29T17:28:15.646Z,65.04
2018-03-29T17:30:43.553Z,66.26
2018-03-29T17:33:11.050Z,67.18
2018-03-29T17:35:38.624Z,68.71
2018-03-29T17:38:06.167Z,68.68
2018-03-29T17:40:33.700Z,69.65
2018-03-29T17:43:01.233Z,70.52
2018-03-29T17:45:28.765Z,71.73
2018-03-29T17:47:56.460Z,72.31
2018-03-29T17:50:23.953Z,72.07
2018-03-29T17:52:51.486Z,72.67
2018-03-29T17:55:19.013Z,74.31
2018-03-29T17:57:46.856Z,74.41
2018-03-29T18:00:14.412Z,73.56
2018-03-29T18:02:42.080Z,75.48
2018-03-29T18:05:09.945Z,76.45
2018-03-29T18:07:37.499Z,75.99
2018-03-29T18:10:06.014Z,76.66
2018-03-29T18:12:33.553Z,77.18
2018-03-29T18:15:01.079Z,76.42
2018-03-29T18:17:28.593Z,75.78
2018-03-29T18:19:56.133Z,76.06
2018-03-29T18:22:23.654Z,76.22
2018-03-29T18:24:51.183Z,76.27
2018-03-29T18:27:18.956Z,76.85
2018-03-29T18:29:46.769Z,76.87
2018-03-29T18:32:14.333Z,77.27
2018-03-29T18:34:41.888Z,77.05
2018-03-29T18:37:09.417Z,77.29
2018-03-29T18:39:36.938Z,77.58
2018-03-29T18:42:04.458Z,77.41
2018-03-29T18:44:31.971Z,77.71
2018-03-29T18:46:59.534Z,77.00
2018-03-29T18:49:27.190Z,76.98
2018-03-29T18:51:54.705Z,77.13
2018-03-29T18:54:22.252Z,76.59
2018-03-29T18:56:49.769Z,76.57
2018-03-29T18:59:17.304Z,76.82
2018-03-29T19:01:45.057Z,77.94
2018-03-29T19:04:12.595Z,77.69
2018-03-29T19:06:40.127Z,77.09
2018-03-29T19:09:07.874Z,77.21
2018-03-29T19:11:35.395Z,76.93
2018-03-29T19:14:02.997Z,77.34
2018-03-29T19:16:30.536Z,77.13
2018-03-29T19:18:58.081Z,77.88
2018-03-29T19:21:25.610Z,77.57
2018-03-29T19:23:53.164Z,77.39
2018-03-29T19:26:20.795Z,78.00
2018-03-29T19:28:48.337Z,77.45
2018-03-29T19:31:15.862Z,77.44
2018-03-29T19:33:43.401Z,77.90
2018-03-29T19:36:10.930Z,78.41
2018-03-29T19:38:38.457Z,78.45
2018-03-29T19:41:06.322Z,78.65
2018-03-29T19:43:33.839Z,78.47
2018-03-29T19:46:01.377Z,78.75
2018-03-29T19:48:28.933Z,79.68
2018-03-29T19:50:56.465Z,79.15
2018-03-29T19:53:23.991Z,80.00
2018-03-29T19:55:51.713Z,79.63
2018-03-29T19:58:19.271Z,79.75
2018-03-29T20:00:46.797Z,80.63
2018-03-29T20:03:14.346Z,80.82
2018-03-29T20:05:41.916Z,81.42
2018-03-29T20:08:09.743Z,81.54
2018-03-29T20:10:37.271Z,81.56
2018-03-29T20:13:05.792Z,82.04
2018-03-29T20:15:34.738Z,82.57
2018-03-29T20:18:02.413Z,82.18
2018-03-29T20:20:29.907Z,82.51
2018-03-29T20:22:57.434Z,82.72
2018-03-29T20:25:25.658Z,82.79
2018-03-29T20:27:53.238Z,82.79
2018-03-29T20:30:20.813Z,82.55
2018-03-29T20:32:48.341Z,82.77
2018-03-29T20:35:16.210Z,82.82
2018-03-29T20:37:43.787Z,83.02
2018-03-29T20:40:11.422Z,82.39
2018-03-29T20:42:39.198Z,82.25
2018-03-29T20:45:06.729Z,82.15
2018-03-29T20:47:34.259Z,82.11
2018-03-29T20:50:01.789Z,82.33
2018-03-29T20:52:29.318Z,82.10
2018-03-29T20:54:56.864Z,82.00
2018-03-29T20:57:25.258Z,81.75
2018-03-29T20:59:52.779Z,82.15
2018-03-29T21:02:21.846Z,82.19
2018-03-29T21:04:49.845Z,82.03
2018-03-29T21:07:17.373Z,82.42
2018-03-29T21:09:45.172Z,82.00
2018-03-29T21:12:13.309Z,82.34
2018-03-29T21:14:40.833Z,82.11
2018-03-29T21:17:08.955Z,82.03
2018-03-29T21:19:36.523Z,82.55
2018-03-29T21:22:04.019Z,82.63
2018-03-29T21:24:33.058Z,82.73
2018-03-29T21:27:00.580Z,82.22
2018-03-29T21:29:28.106Z,82.22
2018-03-29T21:31:55.639Z,82.71
2018-03-29T21:34:23.157Z,83.14
2018-03-29T21:36:50.694Z,83.32
2018-03-29T21:39:18.235Z,83.68
2018-03-29T21:41:46.490Z,84.14
2018-03-29T21:44:14.515Z,84.28
2018-03-29T21:46:42.056Z,84.48
2018-03-29T21:49:09.592Z,84.39
2018-03-29T21:51:37.169Z,85.32
2018-03-29T21:54:04.694Z,85.71
2018-03-29T21:56:32.565Z,85.15
2018-03-29T21:59:00.577Z,84.77
2018-03-29T22:01:29.017Z,84.49
2018-03-29T22:03:56.572Z,84.35
2018-03-29T22:06:24.117Z,84.83
2018-03-29T22:08:51.641Z,84.75
2018-03-29T22:11:19.774Z,84.70
2018-03-29T22:13:49.115Z,85.35
2018-03-29T22:16:16.653Z,85.17
2018-03-29T22:18:44.194Z,85.28
2018-03-29T22:21:11.744Z,85.49
2018-03-29T22:23:39.274Z,85.77
2018-03-29T22:26:06.802Z,85.73
2018-03-29T22:28:34.328Z,85.94
2018-03-29T22:31:01.855Z,86.02
2018-03-29T22:33:29.956Z,85.65
2018-03-29T22:35:57.515Z,86.55
2018-03-29T22:38:25.052Z,86.27
2018-03-29T22:40:52.579Z,86.27
2018-03-29T22:43:20.103Z,87.11
2018-03-29T22:45:47.647Z,87.66
2018-03-29T22:48:15.173Z,88.01
2018-03-29T22:50:42.966Z,87.28
2018-03-29T22:53:10.491Z,87.37
2018-03-29T22:55:38.017Z,88.06
2018-03-29T22:58:05.528Z,87.90
2018-03-29T23:00:35.040Z,88.23
2018-03-29T23:03:02.561Z,88.28
2018-03-29T23:05:30.079Z,87.89
2018-03-29T23:07:57.745Z,87.83
2018-03-29T23:10:25.269Z,88.33
2018-03-29T23:12:54.238Z,88.04
2018-03-29T23:15:21.772Z,87.96
2018-03-29T23:17:49.302Z,87.86
2018-03-29T23:20:16.837Z,87.55
2018-03-29T23:22:44.392Z,87.71
2018-03-29T23:25:11.926Z,87.92
2018-03-29T23:27:39.465Z,88.11
2018-03-29T23:30:06.995Z,87.84
2018-03-29T23:32:34.515Z,87.79
2018-03-29T23:35:03.820Z,88.13
2018-03-29T23:37:31.363Z,88.64
2018-03-29T23:39:58.880Z,88.54
2018-03-29T23:42:26.404Z,88.64
2018-03-29T23:44:53.932Z,88.52
2018-03-29T23:47:21.458Z,88.65
2018-03-29T23:49:48.980Z,88.43
2018-03-29T23:52:16.532Z,88.62
2018-03-29T23:54:44.084Z,88.75
2018-03-29T23:57:11.623Z,89.06
2018-03-29T23:59:39.153Z,89.21
